• Join FlightAware (Why Join?)
  • Login
  • US Flag 
03:24PM EDT


 

Airport Tracker/Info


-or-


 

Live Flight TrackerFlight Track Log ✈ UPS2876 ✈ 20-Mar-2014 ✈ KSDF - KPHX

Flight Track Log - Related Links

Times and Time Zones

All times are in EDT time to prevent confusion due to time zone crossing. See the UPS2876 flight status page for this flight to view local times or setup timezone preferences in your user account.

Time Position Orientation Groundspeed Altitude Reporting Facility
EDT Latitude Longitude Course Direction KTS MPH feet Rate Location/Type
04:40PM 38.1010 -85.7328 187° South 223 257 3,900  Level FlightAware ADS-B (KBRY)
04:41PM 38.0756 -85.8094 272° West 238 274 7,300 2,820 Climbing FlightAware ADS-B (KBRY)
04:43PM 38.0742 -85.9144 265° West 270 311 10,700 2,520 Climbing FlightAware ADS-B (KBRY)
04:43PM 38.0693 -85.9748 264° West 305 351 11,800 3,000 Climbing FlightAware ADS-B
04:44PM 38.0641 -86.0483 266° West 312 359 14,500 3,780 Climbing FlightAware ADS-B
04:45PM 38.0577 -86.1436 264° West 319 367 17,700 3,420 Climbing FlightAware ADS-B
04:45PM 38.0514 -86.2193 264° West 324 373 19,800 3,120 Climbing FlightAware ADS-B
04:46PM 38.0470 -86.2810 265° West 334 384 21,500 1,140 Climbing FlightAware ADS-B
04:48PM 38.0284 -86.5298 265° West 345 397 23,000 1,440 Climbing FlightAware ADS-B (KBRY)
04:51PM 38.0023 -86.8682 264° West 381 438 28,700 1,800 Climbing FlightAware ADS-B (KBRY)
04:55PM 37.9615 -87.3705 264° West 385 443 36,000 1,380 Climbing FlightAware ADS-B (KBRY)
04:56PM 37.9447 -87.5717 264° West 382 440 36,000  Level Indianapolis Center
04:57PM 37.9333 -87.7058 264° West 382 440 36,000  Level Indianapolis Center
04:58PM 37.9214 -87.8383 264° West 380 437 36,000  Level Indianapolis Center
04:59PM 37.9086 -87.9700 263° West 378 435 36,000  Level Indianapolis Center
05:00PM 37.8936 -88.1278 263° West 376 433 36,000  Level Indianapolis Center
05:01PM 37.8808 -88.2583 263° West 375 432 36,000  Level Indianapolis Center
05:02PM 37.8678 -88.3894 263° West 374 430 36,000  Level Indianapolis Center
05:03PM 37.8547 -88.5208 263° West 375 432 36,000  Level Indianapolis Center
05:04PM 37.8414 -88.6519 263° West 375 432 36,000  Level Indianapolis Center
05:05PM 37.8281 -88.7836 263° West 375 432 36,000  Level Indianapolis Center
05:07PM 37.8147 -88.9156 263° West 376 433 36,000  Level Indianapolis Center
05:08PM 37.7981 -89.0750 263° West 377 434 36,000  Level Indianapolis Center
05:09PM 37.7844 -89.2081 263° West 379 436 36,000  Level Indianapolis Center
05:10PM 37.7706 -89.3411 263° West 380 437 36,000  Level Indianapolis Center
05:11PM 37.7564 -89.4756 262° West 382 440 36,000  Level Indianapolis Center
05:12PM 37.7411 -89.6172 262° West 383 441 36,000  Level Kansas City Center
05:13PM 37.7239 -89.7778 262° West 384 442 36,000  Level Kansas City Center
05:14PM 37.7094 -89.9114 262° West 384 442 36,000  Level Kansas City Center
05:15PM 37.6944 -90.0456 262° West 385 443 36,000  Level Kansas City Center
05:16PM 37.6794 -90.1800 262° West 385 443 36,000  Level Kansas City Center
05:17PM 37.6678 -90.3144 264° West 385 443 36,000  Level Kansas City Center
05:18PM 37.6581 -90.4506 265° West 387 445 36,000  Level Kansas City Center
05:19PM 37.6483 -90.5867 265° West 388 447 36,000  Level Kansas City Center
05:20PM 37.6364 -90.7492 265° West 388 447 36,000  Level Kansas City Center
05:21PM 37.6264 -90.8842 265° West 387 445 36,000  Level Kansas City Center
05:22PM 37.6150 -91.0317 264° West 386 444 36,000  Level Kansas City Center
05:23PM 37.6047 -91.1656 265° West 384 442 36,000  Level Kansas City Center
05:24PM 37.5944 -91.2972 264° West 379 436 36,000  Level Kansas City Center
05:25PM 37.5842 -91.4269 264° West 373 429 36,000  Level Kansas City Center
05:26PM 37.5739 -91.5550 264° West 368 423 36,000  Level Kansas City Center
05:27PM 37.5636 -91.6817 264° West 366 421 36,000  Level Kansas City Center
05:28PM 37.5531 -91.8078 264° West 363 418 36,000  Level Kansas City Center
05:29PM 37.5403 -91.9592 264° West 361 415 36,000  Level Kansas City Center
05:30PM 37.5297 -92.0853 264° West 361 415 36,000  Level Kansas City Center
05:38PM 37.4497 -92.9782 263° West 366 421 36,000  Level FlightAware ADS-B (KMKE)
05:39PM 37.4312 -93.1739 263° West 367 422 36,000  Level FlightAware ADS-B (KMKE)
05:40PM 37.4228 -93.2619 263° West 367 422 36,000  Level FlightAware ADS-B (KMKE)
05:40PM 37.4160 -93.3326 263° West 367 422 36,000  Level FlightAware ADS-B (KMKE)
05:41PM 37.4097 -93.3973 263° West 367 422 36,000  Level FlightAware ADS-B (KMKE)
05:41PM 37.4051 -93.4442 263° West 368 423 36,000  Level FlightAware ADS-B (KMKE)
05:42PM 37.3960 -93.5380 263° West 369 425 36,000  Level FlightAware ADS-B (KMKE)
05:43PM 37.3879 -93.6199 263° West 370 426 36,000  Level FlightAware ADS-B (KMKE)
05:43PM 37.3817 -93.6828 263° West 370 426 36,000  Level FlightAware ADS-B (KMKE)
05:44PM 37.3719 -93.7801 263° West 371 427 36,000  Level FlightAware ADS-B (KMKE)
05:45PM 37.3623 -93.8751 263° West 372 428 36,000  Level FlightAware ADS-B (KMKE)
05:45PM 37.3582 -93.9151 263° West 373 429 36,000  Level FlightAware ADS-B (KMKE)
05:46PM 37.3442 -94.0536 263° West 371 427 36,000  Level Kansas City Center
05:47PM 37.3311 -94.1783 263° West 373 429 36,000  Level Kansas City Center
05:48PM 37.3175 -94.3081 263° West 374 430 36,000  Level Kansas City Center
05:49PM 37.3039 -94.4383 263° West 375 432 36,000  Level Kansas City Center
05:50PM 37.2900 -94.5686 262° West 375 432 36,000  Level Kansas City Center
05:51PM 37.2731 -94.7253 262° West 377 434 36,000  Level Kansas City Center
05:52PM 37.2586 -94.8567 262° West 379 436 36,000  Level Kansas City Center
05:53PM 37.2442 -94.9883 262° West 380 437 36,000  Level Kansas City Center
05:54PM 37.2292 -95.1211 262° West 382 440 36,000  Level Kansas City Center
05:55PM 37.2144 -95.2536 262° West 383 441 36,000  Level Kansas City Center
05:56PM 37.1961 -95.4125 262° West 384 442 36,000  Level Kansas City Center
05:57PM 37.1811 -95.5453 262° West 385 443 36,000  Level Kansas City Center
05:58PM 37.1656 -95.6775 262° West 385 443 36,000  Level Kansas City Center
05:59PM 37.1500 -95.8100 262° West 385 443 36,000  Level Kansas City Center
06:00PM 37.1344 -95.9408 262° West 383 441 36,000  Level Kansas City Center
06:01PM 37.1189 -96.0706 261° West 380 437 36,000  Level Kansas City Center
06:03PM 37.1003 -96.2236 261° West 374 430 36,000  Level Kansas City Center
06:04PM 37.0847 -96.3503 261° West 371 427 36,000  Level Kansas City Center
06:05PM 37.0692 -96.4758 261° West 369 425 36,000  Level Kansas City Center
06:06PM 37.0536 -96.6008 261° West 367 422 36,000  Level Kansas City Center
06:07PM 37.0381 -96.7258 261° West 366 421 36,000  Level Kansas City Center
06:08PM 37.0203 -96.8650 261° West 365 420 36,000  Level Kansas City Center
06:09PM 37.0042 -96.9906 261° West 365 420 36,000  Level Kansas City Center
06:10PM 36.9883 -97.1158 261° West 365 420 36,000  Level Kansas City Center
06:11PM 36.9717 -97.2419 261° West 366 421 36,000  Level Kansas City Center
06:12PM 36.9550 -97.3683 261° West 367 422 36,000  Level Kansas City Center
06:13PM 36.9347 -97.5208 261° West 369 425 36,000  Level Kansas City Center
06:14PM 36.9175 -97.6486 260° West 370 426 36,000  Level Kansas City Center
06:15PM 36.9003 -97.7758 260° West 371 427 36,000  Level Kansas City Center
06:16PM 36.8831 -97.9042 261° West 372 428 36,000  Level Kansas City Center
06:17PM 36.8653 -98.0325 260° West 373 429 36,000  Level Kansas City Center
06:18PM 36.8475 -98.1611 260° West 374 430 36,000  Level Kansas City Center
06:19PM 36.8294 -98.2897 260° West 375 432 36,000  Level Kansas City Center
06:20PM 36.8094 -98.4319 260° West 376 433 36,000  Level Kansas City Center
06:21PM 36.7911 -98.5608 260° West 376 433 36,000  Level Kansas City Center
06:22PM 36.7692 -98.7153 260° West 378 435 36,000  Level Kansas City Center
06:23PM 36.7503 -98.8444 260° West 379 436 36,000  Level Kansas City Center
06:24PM 36.7314 -98.9753 260° West 379 436 36,000  Level Kansas City Center
06:25PM 36.7125 -99.1022 260° West 379 436 36,000  Level Kansas City Center
06:26PM 36.6936 -99.2303 260° West 379 436 36,000  Level Kansas City Center
06:27PM 36.6747 -99.3575 260° West 377 434 36,000  Level Kansas City Center
06:28PM 36.6519 -99.5086 259° West 375 432 36,000  Level Kansas City Center
06:29PM 36.6328 -99.6347 259° West 374 430 36,000  Level Kansas City Center
06:30PM 36.6136 -99.7606 259° West 372 428 36,000  Level Kansas City Center
06:32PM 36.5944 -99.8856 259° West 371 427 36,000  Level Kansas City Center
06:33PM 36.5750 -100.0106 259° West 370 426 36,000  Level Kansas City Center
06:34PM 36.5514 -100.1614 259° West 371 427 36,000  Level Kansas City Center
06:35PM 36.5314 -100.2878 259° West 372 428 36,000  Level Kansas City Center
06:36PM 36.5100 -100.4233 259° West 373 429 36,000  Level Kansas City Center
06:37PM 36.4906 -100.5453 259° West 374 430 36,000  Level Kansas City Center
06:38PM 36.4708 -100.6672 259° West 375 432 36,000  Level Kansas City Center
06:39PM 36.4478 -100.8094 259° West 375 432 36,000  Level Kansas City Center
06:40PM 36.4258 -100.9433 259° West 375 432 36,000  Level Kansas City Center
06:41PM 36.4053 -101.0692 259° West 374 430 36,000  Level Kansas City Center
06:42PM 36.3844 -101.1947 258° West 374 430 36,000  Level Kansas City Center
06:42PM 36.3747 -101.2533 258° West 374 430 36,000  Level Albuquerque Center
06:43PM 36.3508 -101.3944 258° West 374 430 36,000  Level Albuquerque Center
06:44PM 36.3306 -101.5156 258° West 374 430 36,000  Level Albuquerque Center
06:45PM 36.3081 -101.6475 258° West 375 432 36,000  Level Albuquerque Center
06:46PM 36.2867 -101.7733 258° West 375 432 36,000  Level Albuquerque Center
06:47PM 36.2606 -101.9239 258° West 375 432 36,000  Level Albuquerque Center
06:49PM 36.2389 -102.0489 258° West 374 430 36,000  Level Albuquerque Center
06:50PM 36.2172 -102.1739 258° West 374 430 36,000  Level Albuquerque Center
06:51PM 36.1953 -102.2986 258° West 373 429 36,000  Level Albuquerque Center
06:52PM 36.1731 -102.4233 258° West 373 429 36,000  Level Albuquerque Center
06:53PM 36.1508 -102.5483 258° West 374 430 36,000  Level Albuquerque Center
06:54PM 36.1239 -102.6983 258° West 374 430 36,000  Level Albuquerque Center
06:55PM 36.1014 -102.8231 257° West 374 430 36,000  Level Albuquerque Center
06:56PM 36.0775 -102.9547 257° West 374 430 36,000  Level Albuquerque Center
06:57PM 36.0542 -103.0814 257° West 374 430 36,000  Level Albuquerque Center
06:58PM 36.0311 -103.2072 257° West 374 430 36,000  Level Albuquerque Center
06:59PM 36.0078 -103.3331 257° West 374 430 36,000  Level Albuquerque Center
07:00PM 35.9842 -103.4592 257° West 374 430 36,000  Level Albuquerque Center
07:01PM 35.9564 -103.6064 257° West 375 432 36,000  Level Albuquerque Center
07:02PM 35.9328 -103.7319 257° West 375 432 36,000  Level Albuquerque Center
07:03PM 35.9092 -103.8567 257° West 373 429 36,000  Level Albuquerque Center
07:04PM 35.8856 -103.9803 257° West 371 427 36,000  Level Albuquerque Center
07:05PM 35.8617 -104.1033 257° West 370 426 36,000  Level Albuquerque Center
07:06PM 35.8378 -104.2267 257° West 369 425 36,000  Level Albuquerque Center
07:12PM 35.7120 -104.8841 260° West 369 425 36,000  Level FlightAware ADS-B (KBDG)
07:13PM 35.6864 -105.0512 259° West 372 428 36,000  Level FlightAware ADS-B (KBDG)
07:14PM 35.6628 -105.1991 259° West 374 430 36,000  Level FlightAware ADS-B (KBDG)
07:16PM 35.6496 -105.2816 259° West 379 436 36,000  Level FlightAware ADS-B (KBDG)
07:18PM 35.6078 -105.5428 259° West 383 441 36,000  Level FlightAware ADS-B (KBDG)
07:22PM 35.5014 -106.1900 258° West 367 422 36,000  Level FlightAware ADS-B (KAEG)
07:22PM 35.4923 -106.2445 258° West 367 422 36,000  Level FlightAware ADS-B (KAEG)
07:23PM 35.4736 -106.3555 258° West 367 422 36,000  Level FlightAware ADS-B (KAEG)
07:24PM 35.4604 -106.4330 258° West 368 423 36,000  Level FlightAware ADS-B (KAEG)
07:24PM 35.4464 -106.5155 258° West 369 425 36,000  Level FlightAware ADS-B (KBDG)
07:25PM 35.4311 -106.6054 258° West 371 427 36,000  Level FlightAware ADS-B (KAEG)
07:26PM 35.4169 -106.6882 258° West 370 426 36,000  Level FlightAware ADS-B (KAEG)
07:26PM 35.4045 -106.7602 258° West 370 426 36,000  Level FlightAware ADS-B (KBDG)
07:27PM 35.3903 -106.8425 258° West 367 422 36,000  Level FlightAware ADS-B (KAEG)
07:28PM 35.3762 -106.9240 258° West 365 420 36,000  Level FlightAware ADS-B (KAEG)
07:29PM 35.3603 -107.0146 258° West 363 418 36,000  Level FlightAware ADS-B (KBDG)
07:29PM 35.3466 -107.0927 258° West 360 414 36,000  Level FlightAware ADS-B (KAEG)
07:30PM 35.3331 -107.1703 258° West 357 411 36,000  Level FlightAware ADS-B (KAEG)
07:31PM 35.3154 -107.2564 254° West 354 407 36,000  Level FlightAware ADS-B (KBDG)
07:32PM 35.2868 -107.3818 255° West 351 404 36,000  Level FlightAware ADS-B (KBDG)
07:33PM 35.2614 -107.4970 255° West 351 404 36,000  Level FlightAware ADS-B (KBDG)
07:34PM 35.2353 -107.6141 255° West 350 403 36,000  Level FlightAware ADS-B (KBDG)
07:35PM 35.2080 -107.7351 255° West 352 405 36,000  Level FlightAware ADS-B (KBDG)
07:37PM 35.1541 -107.9729 255° West 351 404 36,000  Level FlightAware ADS-B (KBDG)
07:38PM 35.1264 -108.0941 254° West 350 403 36,000  Level FlightAware ADS-B (KBDG)
07:40PM 35.0719 -108.3308 254° West 350 403 36,000 -480 Level FlightAware ADS-B (KBDG)
07:41PM 35.0436 -108.4524 254° West 366 421 34,500 -960 Descending FlightAware ADS-B (KBDG)
07:42PM 35.0139 -108.5804 254° West 387 445 34,000 -240 Descending FlightAware ADS-B (KBDG)
07:43PM 34.9818 -108.7169 254° West 374 430 34,000  Level FlightAware ADS-B (KBDG)
07:44PM 34.9466 -108.8665 254° West 366 421 34,000  Level FlightAware ADS-B (KBDG)
07:45PM 34.9169 -108.9920 254° West 363 418 34,000  Level FlightAware ADS-B (KBDG)
07:47PM 34.8871 -109.1167 254° West 364 419 34,000  Level FlightAware ADS-B (KBDG)
07:47PM 34.8626 -109.2195 254° West 366 421 34,000  Level FlightAware ADS-B (KBDG)
07:50PM 34.7967 -109.4923 253° West 371 427 34,000  Level FlightAware ADS-B (KBDG)
07:51PM 34.7668 -109.6153 253° West 376 433 34,000  Level FlightAware ADS-B (KBDG)
07:53PM 34.7068 -109.8558 249° West 385 443 34,000  Level FlightAware ADS-B (KBDG)
07:54PM 34.6625 -109.9793 246° West 389 448 34,000  Level FlightAware ADS-B (KBDG)
07:55PM 34.6280 -110.0709 246° West 390 449 34,000  Level FlightAware ADS-B (KBDG)
07:56PM 34.5556 -110.2641 246° West 390 449 34,000 -1,680 Level FlightAware ADS-B (KBDG)
08:02PM 34.2434 -110.9388 227° Southwest 352 405 21,400 -2,100 Descending FlightAware ADS-B
08:03PM 34.2117 -110.9795 227° Southwest 347 399 20,500 -1,800 Descending FlightAware ADS-B
08:03PM 34.1782 -111.0226 227° Southwest 343 395 19,600 -1,800 Descending FlightAware ADS-B
08:04PM 34.1447 -111.0657 227° Southwest 340 391 18,700 -1,680 Descending FlightAware ADS-B
08:04PM 34.1160 -111.1027 227° Southwest 333 383 17,900 -1,620 Descending FlightAware ADS-B
08:05PM 34.0812 -111.1477 227° Southwest 330 380 17,100 -1,620 Descending FlightAware ADS-B
08:05PM 34.0531 -111.1836 227° Southwest 326 375 16,300 -1,800 Descending FlightAware ADS-B
08:06PM 34.0093 -111.2398 227° Southwest 323 372 15,000 -1,740 Descending FlightAware ADS-B
08:07PM 33.9755 -111.2830 227° Southwest 319 367 14,200 -1,680 Descending FlightAware ADS-B
08:07PM 33.9333 -111.3333 227° Southwest 314 361 12,900 -1,560 Descending Phoenix TRACON
08:08PM 33.8942 -111.3892 230° Southwest 308 354 12,000 -1,020 Descending Albuquerque Center
08:09PM 33.8386 -111.4422 218° Southwest 255 293 11,100 -720 Descending Albuquerque Center
08:10PM 33.7864 -111.4881 216° Southwest 234 269 10,500 -600 Descending Albuquerque Center
08:11PM 33.7342 -111.5319 215° Southwest 232 267 9,900 -840 Descending Albuquerque Center
08:12PM 33.6833 -111.5753 215° Southwest 228 262 8,800 -1,260 Descending Albuquerque Center
08:13PM 33.6217 -111.6278 215° Southwest 226 260 7,300 -1,320 Descending Albuquerque Center
08:14PM 33.5700 -111.6711 215° Southwest 226 260 6,100 -1,140 Descending Albuquerque Center
08:15PM 33.5222 -111.7189 220° Southwest 226 260 5,000 -1,080 Descending Albuquerque Center
08:16PM 33.4775 -111.7697 223° Southwest 224 258 3,900 -1,020 Descending Albuquerque Center
08:17PM 33.4525 -111.8292 243° Southwest 198 228 3,000 -540 Descending Albuquerque Center
08:18PM 33.4292 -111.8836 243° Southwest 187 215 2,900 -540 Descending Albuquerque Center
08:19PM 33.4333 -111.9333 276° West 148 170 2,100 -1,020 Descending Phoenix TRACON
08:23PM 33.4333 -112.0000 246° West  Level FlightAware Approximate